Time;durP1;ratioP1;P1;durP2;ratioP2;P2;SDS_P1;SDS_P2;PMS_P1;PMS_P2;Temp;Humidity;BMP_temperature;BMP_pressure;BME280_temperature;BME280_humidity;BME280_pressure;Samples;Min_cycle;Max_cycle;Signal;HPM_P1;HPM_P2
2023/11/20 00:00:13;;;;;;;10.70;6.50;;;1.50;99.90;;;;;;4176621;28;20340;-59
2023/11/20 00:02:14;;;;;;;11.13;6.97;;;1.50;99.90;;;;;;4172575;28;20266;-59
2023/11/20 00:04:15;;;;;;;11.97;6.77;;;1.50;99.90;;;;;;4176377;28;20258;-59
2023/11/20 00:06:16;;;;;;;9.97;6.30;;;1.50;99.90;;;;;;4169177;28;20295;-58
2023/11/20 00:08:18;;;;;;;11.47;7.07;;;1.50;99.90;;;;;;4161272;28;20618;-59
2023/11/20 00:10:19;;;;;;;11.87;7.50;;;1.50;99.90;;;;;;4160628;28;20275;-58
2023/11/20 00:12:21;;;;;;;11.70;6.87;;;1.50;99.90;;;;;;4172041;28;20691;-59
2023/11/20 00:14:22;;;;;;;10.33;6.73;;;1.50;99.90;;;;;;4164490;28;20313;-57
2023/11/20 00:16:23;;;;;;;12.23;7.23;;;1.50;99.90;;;;;;4160435;28;20263;-58
2023/11/20 00:18:24;;;;;;;10.57;6.37;;;1.50;99.90;;;;;;4161008;28;20328;-59
2023/11/20 00:20:25;;;;;;;12.87;7.03;;;1.50;99.90;;;;;;4161108;28;20341;-58
2023/11/20 00:22:26;;;;;;;11.97;6.67;;;1.50;99.90;;;;;;4143105;28;20400;-55
2023/11/20 00:24:27;;;;;;;13.73;7.90;;;1.60;99.90;;;;;;4162064;28;20267;-59
2023/11/20 00:26:28;;;;;;;15.17;7.90;;;1.60;99.90;;;;;;4161195;28;20754;-60
2023/11/20 00:28:29;;;;;;;10.80;6.43;;;1.60;99.90;;;;;;4160579;28;20286;-59
2023/11/20 00:30:30;;;;;;;12.93;7.57;;;1.60;99.90;;;;;;4160973;28;20325;-58
2023/11/20 00:32:32;;;;;;;14.90;8.03;;;1.60;99.90;;;;;;4160206;28;20278;-59
2023/11/20 00:34:37;;;;;;;11.73;6.90;;;1.60;99.90;;;;;;4160770;28;20301;-59
2023/11/20 00:36:38;;;;;;;11.87;7.80;;;1.70;99.90;;;;;;4160549;28;20275;-60
2023/11/20 00:38:39;;;;;;;11.97;7.43;;;1.70;99.90;;;;;;4160707;28;20267;-58
2023/11/20 00:40:41;;;;;;;13.57;7.07;;;1.70;99.90;;;;;;4160184;28;20259;-60
2023/11/20 00:42:43;;;;;;;14.77;7.50;;;1.70;99.90;;;;;;4160486;28;20263;-56
2023/11/20 00:44:44;;;;;;;11.00;7.20;;;1.70;99.90;;;;;;4160094;28;20274;-58
2023/11/20 00:46:45;;;;;;;14.77;7.00;;;1.70;99.90;;;;;;4159876;28;20357;-58
2023/11/20 00:48:46;;;;;;;9.80;6.67;;;1.80;99.90;;;;;;4160150;28;20747;-60
2023/11/20 00:50:48;;;;;;;9.77;6.43;;;1.80;99.90;;;;;;4160572;28;20281;-59
2023/11/20 00:52:49;;;;;;;10.27;6.30;;;1.80;99.90;;;;;;4160602;28;20279;-58
2023/11/20 00:54:50;;;;;;;10.13;6.07;;;1.90;99.90;;;;;;4168107;28;20323;-58
2023/11/20 00:56:51;;;;;;;9.33;5.93;;;1.90;99.90;;;;;;4177261;28;20278;-59
2023/11/20 00:58:52;;;;;;;9.10;6.47;;;1.80;99.90;;;;;;4176770;28;20350;-60
2023/11/20 01:00:54;;;;;;;9.03;5.90;;;1.90;99.90;;;;;;4175420;28;20292;-58
2023/11/20 01:02:55;;;;;;;8.10;5.30;;;1.90;99.90;;;;;;4175616;28;20715;-59
2023/11/20 01:04:56;;;;;;;8.50;5.67;;;1.80;99.90;;;;;;4174009;28;20263;-58
2023/11/20 01:06:58;;;;;;;9.17;6.37;;;1.80;99.90;;;;;;4176583;28;20290;-59
2023/11/20 01:08:59;;;;;;;8.33;5.83;;;1.80;99.90;;;;;;4175893;28;20634;-57
2023/11/20 01:11:01;;;;;;;10.43;6.57;;;1.80;99.90;;;;;;4176634;28;20265;-59
2023/11/20 01:13:02;;;;;;;8.10;5.50;;;1.80;99.90;;;;;;4175926;28;20266;-59
2023/11/20 01:15:04;;;;;;;9.53;6.07;;;1.90;99.90;;;;;;4175851;28;20336;-59
2023/11/20 01:17:06;;;;;;;8.70;5.93;;;1.80;99.90;;;;;;4170395;28;20278;-59
2023/11/20 01:19:07;;;;;;;9.97;5.80;;;1.80;99.90;;;;;;4176443;28;20300;-60
2023/11/20 01:21:08;;;;;;;6.07;4.60;;;1.70;99.90;;;;;;4173522;28;20360;-56
2023/11/20 01:23:10;;;;;;;7.10;5.00;;;1.60;99.90;;;;;;4172975;28;20259;-57
2023/11/20 01:25:11;;;;;;;7.70;5.07;;;1.50;99.90;;;;;;4174061;28;20273;-59
2023/11/20 01:27:12;;;;;;;7.10;5.20;;;1.50;99.90;;;;;;4173069;28;20274;-58
2023/11/20 01:29:13;;;;;;;7.33;5.20;;;1.40;99.90;;;;;;4176641;28;20335;-58
2023/11/20 01:31:14;;;;;;;7.97;5.37;;;1.40;99.90;;;;;;4175500;28;20467;-56
2023/11/20 01:33:15;;;;;;;10.97;7.13;;;1.40;99.90;;;;;;4171921;28;20356;-57
2023/11/20 01:35:16;;;;;;;9.13;5.97;;;1.30;99.90;;;;;;4175895;28;20324;-57
2023/11/20 01:37:17;;;;;;;10.90;5.83;;;1.20;99.90;;;;;;4162456;28;20325;-55
2023/11/20 01:39:19;;;;;;;10.60;6.43;;;1.20;99.90;;;;;;4159773;28;20262;-59
2023/11/20 01:41:20;;;;;;;13.00;6.47;;;1.20;99.90;;;;;;4159698;28;20670;-59
2023/11/20 01:43:21;;;;;;;10.27;6.00;;;1.20;99.90;;;;;;4159689;28;20303;-57
2023/11/20 01:45:23;;;;;;;11.00;6.43;;;1.10;99.90;;;;;;4159746;28;20313;-59
2023/11/20 01:47:24;;;;;;;12.10;7.37;;;1.10;99.90;;;;;;4159693;28;20270;-58
2023/11/20 01:49:25;;;;;;;12.37;7.20;;;1.10;99.90;;;;;;4159474;28;20313;-58
2023/11/20 01:51:31;;;;;;;10.77;6.97;;;1.10;99.90;;;;;;4159598;28;20324;-59
2023/11/20 01:53:34;;;;;;;12.07;6.93;;;1.10;99.90;;;;;;4159244;28;20279;-59
2023/11/20 01:55:35;;;;;;;12.53;7.40;;;1.10;99.90;;;;;;4159209;28;20325;-59
2023/11/20 01:57:41;;;;;;;12.17;6.90;;;1.10;99.90;;;;;;4159965;28;20275;-57
2023/11/20 01:59:42;;;;;;;12.10;7.17;;;1.10;99.90;;;;;;4159717;28;20297;-61
2023/11/20 02:01:43;;;;;;;12.07;6.43;;;1.10;99.90;;;;;;4159007;28;20267;-60
2023/11/20 02:03:45;;;;;;;10.87;7.27;;;1.20;99.90;;;;;;4159154;28;20742;-61
2023/11/20 02:05:46;;;;;;;10.43;7.00;;;1.10;99.90;;;;;;4174560;28;20874;-60
2023/11/20 02:07:47;;;;;;;19.93;7.80;;;1.20;99.90;;;;;;4176089;28;20250;-61
2023/11/20 02:09:48;;;;;;;13.53;7.40;;;1.20;99.90;;;;;;4175864;28;20258;-60
2023/11/20 02:11:50;;;;;;;12.63;7.40;;;1.30;99.90;;;;;;4174940;28;20262;-60
2023/11/20 02:13:53;;;;;;;11.80;7.27;;;1.30;99.90;;;;;;4175923;28;20320;-60
2023/11/20 02:15:54;;;;;;;12.87;7.50;;;1.30;99.90;;;;;;4175784;28;20269;-60
2023/11/20 02:17:55;;;;;;;12.03;7.20;;;1.30;99.90;;;;;;4174777;28;20305;-61
2023/11/20 02:19:56;;;;;;;11.97;7.13;;;1.30;99.90;;;;;;4165519;28;20795;-61
2023/11/20 02:21:58;;;;;;;10.90;7.10;;;1.30;99.90;;;;;;4159099;28;20332;-58
2023/11/20 02:23:59;;;;;;;10.93;6.70;;;1.40;99.90;;;;;;4160527;28;20305;-57
2023/11/20 02:26:09;;;;;;;10.20;6.57;;;1.40;99.90;;;;;;4158886;28;20295;-59
2023/11/20 02:28:21;;;;;;;8.30;5.57;;;1.40;99.90;;;;;;4159722;28;20332;-59
2023/11/20 02:30:23;;;;;;;11.97;6.97;;;1.50;99.90;;;;;;4158910;28;20490;-60
2023/11/20 02:32:24;;;;;;;9.43;6.10;;;1.50;99.90;;;;;;4159289;28;20337;-58
2023/11/20 02:34:25;;;;;;;8.80;6.17;;;1.60;99.90;;;;;;4158997;28;20813;-61
2023/11/20 02:36:26;;;;;;;9.53;6.17;;;1.50;99.90;;;;;;4160318;28;20274;-60
2023/11/20 02:38:27;;;;;;;11.03;6.60;;;1.60;99.90;;;;;;4161061;28;20755;-60
2023/11/20 02:40:28;;;;;;;10.13;6.20;;;1.50;99.90;;;;;;4141508;28;20267;-61
2023/11/20 02:42:30;;;;;;;11.30;6.83;;;1.50;99.90;;;;;;4161321;28;20259;-61
2023/11/20 02:44:31;;;;;;;10.30;6.60;;;1.60;99.90;;;;;;4174956;28;20289;-60
2023/11/20 02:46:32;;;;;;;10.30;6.53;;;1.50;99.90;;;;;;4167932;28;20372;-60
2023/11/20 02:48:33;;;;;;;8.93;6.17;;;1.60;99.90;;;;;;4162590;28;20301;-59
2023/11/20 02:50:34;;;;;;;9.93;6.63;;;1.50;99.90;;;;;;4159297;28;20352;-61
2023/11/20 02:52:35;;;;;;;10.83;6.63;;;1.60;99.90;;;;;;4159984;28;20646;-60
2023/11/20 02:54:37;;;;;;;11.33;6.70;;;1.50;99.90;;;;;;4159980;28;20282;-60
2023/11/20 02:56:41;;;;;;;11.27;6.60;;;1.50;99.90;;;;;;4159278;28;20328;-61
2023/11/20 02:58:43;;;;;;;10.33;5.60;;;1.50;99.90;;;;;;4162802;28;20329;-59
2023/11/20 03:00:44;;;;;;;11.20;7.20;;;1.50;99.90;;;;;;4174811;28;20278;-60
2023/11/20 03:02:45;;;;;;;11.73;6.20;;;1.40;99.90;;;;;;4175429;28;20278;-60
2023/11/20 03:04:46;;;;;;;10.40;6.40;;;1.40;99.90;;;;;;4172493;28;20277;-59
2023/11/20 03:06:47;;;;;;;11.17;7.00;;;1.40;99.90;;;;;;4175333;28;20301;-59
2023/11/20 03:08:49;;;;;;;12.37;7.73;;;1.40;99.90;;;;;;4170169;28;20274;-60
2023/11/20 03:10:51;;;;;;;10.07;6.27;;;1.40;99.90;;;;;;4157164;28;20267;-61
2023/11/20 03:12:52;;;;;;;13.60;7.10;;;1.40;99.90;;;;;;4174824;28;20762;-58
2023/11/20 03:14:53;;;;;;;9.77;5.97;;;1.40;99.90;;;;;;4170451;28;20328;-54
2023/11/20 03:16:54;;;;;;;9.63;6.43;;;1.40;99.90;;;;;;4174682;28;20301;-59
2023/11/20 03:18:55;;;;;;;10.63;6.43;;;1.30;99.90;;;;;;4171081;28;20690;-61
2023/11/20 03:20:56;;;;;;;10.83;7.00;;;1.40;99.90;;;;;;4159394;28;20283;-59
2023/11/20 03:22:58;;;;;;;11.17;6.63;;;1.30;99.90;;;;;;4159792;28;20267;-60
2023/11/20 03:25:00;;;;;;;10.57;6.93;;;1.30;99.90;;;;;;4163387;28;21107;-60
2023/11/20 03:27:01;;;;;;;12.13;6.53;;;1.30;99.90;;;;;;4162023;28;20344;-60
2023/11/20 03:29:03;;;;;;;11.50;7.23;;;1.30;99.90;;;;;;4163866;28;20340;-60
2023/11/20 03:31:04;;;;;;;11.27;7.00;;;1.40;99.90;;;;;;4173996;28;20266;-60
2023/11/20 03:33:05;;;;;;;12.80;7.43;;;1.30;99.90;;;;;;4178243;28;20289;-59
2023/11/20 03:35:06;;;;;;;12.47;7.47;;;1.30;99.90;;;;;;4173329;28;20392;-60
2023/11/20 03:37:07;;;;;;;10.90;6.77;;;1.30;99.90;;;;;;4177423;28;20262;-60
2023/11/20 03:39:09;;;;;;;10.77;6.73;;;1.30;99.90;;;;;;4162192;28;20267;-60
2023/11/20 03:41:10;;;;;;;9.37;6.00;;;1.30;99.90;;;;;;4166047;28;20259;-57
2023/11/20 03:43:11;;;;;;;12.33;6.60;;;1.30;99.90;;;;;;4161103;28;20255;-59
2023/11/20 03:45:12;;;;;;;12.53;6.77;;;1.30;99.90;;;;;;4161009;28;20270;-60
2023/11/20 03:47:14;;;;;;;10.40;6.03;;;1.30;99.90;;;;;;4160932;28;20299;-58
2023/11/20 03:49:15;;;;;;;9.57;5.97;;;1.40;99.90;;;;;;4177584;28;20316;-60
2023/11/20 03:51:17;;;;;;;10.87;6.80;;;1.30;99.90;;;;;;4177910;28;20668;-61
2023/11/20 03:53:18;;;;;;;11.27;6.10;;;1.30;99.90;;;;;;4177902;28;20336;-59
2023/11/20 03:55:19;;;;;;;9.80;6.10;;;1.30;99.90;;;;;;4177113;28;20681;-60
2023/11/20 03:57:20;;;;;;;9.50;5.97;;;1.30;99.90;;;;;;4177767;28;20274;-59
2023/11/20 03:59:22;;;;;;;9.83;5.67;;;1.30;99.90;;;;;;4174970;28;20274;-60
2023/11/20 04:01:23;;;;;;;10.00;6.13;;;1.40;99.90;;;;;;4160506;28;20799;-60
2023/11/20 04:03:24;;;;;;;9.20;5.87;;;1.40;99.90;;;;;;4161019;28;20328;-58
2023/11/20 04:05:25;;;;;;;8.87;5.37;;;1.40;99.90;;;;;;4164293;28;20317;-60
2023/11/20 04:07:26;;;;;;;8.03;5.40;;;1.40;99.90;;;;;;4177198;28;20290;-59
2023/11/20 04:09:27;;;;;;;14.53;6.37;;;1.40;99.90;;;;;;4174403;28;20304;-60
2023/11/20 04:11:29;;;;;;;7.57;5.33;;;1.40;99.90;;;;;;4175566;28;20274;-59
2023/11/20 04:13:30;;;;;;;8.30;5.47;;;1.50;99.90;;;;;;4176914;28;20349;-60
2023/11/20 04:15:32;;;;;;;9.77;6.43;;;1.50;99.90;;;;;;4172708;28;20278;-60
2023/11/20 04:17:34;;;;;;;8.67;5.57;;;1.50;99.90;;;;;;4177265;28;20266;-59
2023/11/20 04:19:35;;;;;;;9.07;5.50;;;1.50;99.90;;;;;;4177274;28;20594;-60
2023/11/20 04:21:36;;;;;;;8.20;5.60;;;1.50;99.90;;;;;;4160668;28;20287;-59
2023/11/20 04:23:38;;;;;;;8.53;5.83;;;1.60;99.90;;;;;;4161261;28;20778;-58
2023/11/20 04:25:39;;;;;;;7.87;5.40;;;1.60;99.90;;;;;;4164332;28;20308;-57
2023/11/20 04:27:40;;;;;;;9.07;5.53;;;1.50;99.90;;;;;;4161931;28;20290;-60
2023/11/20 04:29:41;;;;;;;9.17;5.93;;;1.50;99.90;;;;;;4160834;28;20282;-59
2023/11/20 04:31:42;;;;;;;10.40;6.37;;;1.60;99.90;;;;;;4163588;28;20325;-57
2023/11/20 04:33:43;;;;;;;9.67;6.00;;;1.60;99.90;;;;;;4160716;28;20642;-58
2023/11/20 04:35:45;;;;;;;9.17;6.53;;;1.60;99.90;;;;;;4163195;28;20267;-60
2023/11/20 04:37:46;;;;;;;9.87;6.27;;;1.60;99.90;;;;;;4160807;28;20357;-59
2023/11/20 04:39:49;;;;;;;8.60;6.33;;;1.60;99.90;;;;;;4160251;28;20275;-58
2023/11/20 04:41:50;;;;;;;11.20;6.07;;;1.50;99.90;;;;;;4163873;28;20666;-59
2023/11/20 04:43:51;;;;;;;10.07;5.60;;;1.60;99.90;;;;;;4142688;28;20279;-60
2023/11/20 04:45:52;;;;;;;9.63;6.30;;;1.50;99.90;;;;;;4162989;28;20290;-58
2023/11/20 04:47:53;;;;;;;8.53;5.67;;;1.60;99.90;;;;;;4161354;28;20785;-61
2023/11/20 04:49:54;;;;;;;9.33;6.30;;;1.50;99.90;;;;;;4172028;28;20329;-60
2023/11/20 04:51:56;;;;;;;8.57;5.37;;;1.50;99.90;;;;;;4163512;28;20259;-60
2023/11/20 04:53:57;;;;;;;8.67;6.00;;;1.40;99.90;;;;;;4175112;28;20270;-60
2023/11/20 04:55:58;;;;;;;8.23;5.60;;;1.40;99.90;;;;;;4176819;28;20353;-60
2023/11/20 04:58:00;;;;;;;8.10;5.40;;;1.40;99.90;;;;;;4161776;28;20267;-61
2023/11/20 05:00:03;;;;;;;9.87;5.67;;;1.40;99.90;;;;;;4167931;28;20312;-60
2023/11/20 05:02:04;;;;;;;6.53;4.60;;;1.40;99.90;;;;;;4175826;28;20308;-60
2023/11/20 05:04:05;;;;;;;8.80;5.40;;;1.40;99.90;;;;;;4176559;28;20254;-58
2023/11/20 05:06:07;;;;;;;9.70;5.70;;;1.40;99.90;;;;;;4175908;28;20259;-62
2023/11/20 05:08:08;;;;;;;11.63;6.50;;;1.40;99.90;;;;;;4174897;28;20746;-61
2023/11/20 05:10:10;;;;;;;10.10;6.10;;;1.40;99.90;;;;;;4167857;28;20316;-57
2023/11/20 05:12:11;;;;;;;9.73;6.30;;;1.40;99.90;;;;;;4163301;28;20321;-61
2023/11/20 05:14:12;;;;;;;15.70;8.63;;;1.40;99.90;;;;;;4159736;28;20727;-61
2023/11/20 05:16:13;;;;;;;13.63;7.87;;;1.40;99.90;;;;;;4171933;28;20789;-61
2023/11/20 05:18:15;;;;;;;16.33;8.40;;;1.50;99.90;;;;;;4175840;28;20282;-60
2023/11/20 05:20:16;;;;;;;13.03;7.43;;;1.50;99.90;;;;;;4175390;28;20270;-61
2023/11/20 05:22:17;;;;;;;13.00;7.87;;;1.50;99.90;;;;;;4175689;28;20289;-60
2023/11/20 05:24:18;;;;;;;12.83;7.27;;;1.50;99.90;;;;;;4174553;28;20661;-60
2023/11/20 05:26:19;;;;;;;11.80;7.53;;;1.50;99.90;;;;;;4166772;28;20259;-60
2023/11/20 05:28:20;;;;;;;10.23;6.43;;;1.50;99.90;;;;;;4167215;28;20312;-60
2023/11/20 05:30:23;;;;;;;12.33;7.30;;;1.50;99.90;;;;;;4163505;28;20267;-61
2023/11/20 05:32:24;;;;;;;9.47;6.67;;;1.50;99.90;;;;;;4158712;28;20695;-59
2023/11/20 05:34:25;;;;;;;15.50;7.80;;;1.50;99.90;;;;;;4166997;28;20340;-60
2023/11/20 05:36:27;;;;;;;15.13;8.23;;;1.40;99.90;;;;;;4153039;28;20259;-63
2023/11/20 05:38:29;;;;;;;15.27;8.83;;;1.40;99.90;;;;;;4162644;28;20263;-59
2023/11/20 05:40:32;;;;;;;9.70;6.30;;;1.40;99.90;;;;;;4163195;28;20321;-61
2023/11/20 05:42:33;;;;;;;10.17;5.43;;;1.40;99.90;;;;;;4159035;28;20266;-62
2023/11/20 05:44:34;;;;;;;11.97;6.30;;;1.40;99.90;;;;;;4159443;28;20670;-61
2023/11/20 05:46:36;;;;;;;8.00;5.90;;;1.30;99.90;;;;;;4163105;28;20346;-61
2023/11/20 05:48:37;;;;;;;10.37;6.00;;;1.30;99.90;;;;;;4170676;28;20271;-61
2023/11/20 05:50:38;;;;;;;9.80;5.57;;;1.40;99.90;;;;;;4159107;28;20279;-61
2023/11/20 05:52:39;;;;;;;8.37;5.80;;;1.30;99.90;;;;;;4162180;28;20258;-62
2023/11/20 05:54:40;;;;;;;11.23;5.73;;;1.30;99.90;;;;;;4175659;28;20266;-57
2023/11/20 05:56:41;;;;;;;10.40;5.53;;;1.30;99.90;;;;;;4168721;28;21328;-61
2023/11/20 05:58:42;;;;;;;12.63;7.03;;;1.30;99.90;;;;;;4175836;28;20285;-60
2023/11/20 06:00:43;;;;;;;14.67;8.00;;;1.30;99.90;;;;;;4174352;28;20316;-60
2023/11/20 06:02:45;;;;;;;10.67;6.20;;;1.30;99.90;;;;;;4175717;28;20716;-59
2023/11/20 06:04:46;;;;;;;10.20;6.13;;;1.30;99.90;;;;;;4175396;28;20290;-60
2023/11/20 06:06:48;;;;;;;14.87;7.60;;;1.40;99.90;;;;;;4174489;28;20298;-59
2023/11/20 06:08:49;;;;;;;12.60;6.90;;;1.40;99.90;;;;;;4163732;28;20271;-58
2023/11/20 06:10:50;;;;;;;13.23;7.40;;;1.40;99.90;;;;;;4159980;28;20832;-59
2023/11/20 06:12:52;;;;;;;12.23;6.60;;;1.40;99.90;;;;;;4158812;28;20766;-58
2023/11/20 06:14:53;;;;;;;13.10;6.97;;;1.50;99.90;;;;;;4158744;28;20275;-59
2023/11/20 06:16:54;;;;;;;19.77;9.27;;;1.40;99.90;;;;;;4158588;28;20829;-59
2023/11/20 06:18:55;;;;;;;18.43;9.70;;;1.50;99.90;;;;;;4158647;28;20333;-59
2023/11/20 06:20:56;;;;;;;11.97;6.67;;;1.40;99.90;;;;;;4159222;28;20706;-59
2023/11/20 06:22:57;;;;;;;13.73;7.93;;;1.50;99.90;;;;;;4158598;28;20278;-60
2023/11/20 06:24:59;;;;;;;11.63;6.83;;;1.40;99.90;;;;;;4158946;28;20715;-59
2023/11/20 06:27:00;;;;;;;10.50;7.30;;;1.40;99.90;;;;;;4158785;28;20290;-60
2023/11/20 06:29:01;;;;;;;11.47;6.87;;;1.40;99.90;;;;;;4158768;28;20738;-60
2023/11/20 06:31:03;;;;;;;13.07;7.43;;;1.40;99.90;;;;;;4158836;28;20329;-61
2023/11/20 06:33:04;;;;;;;12.93;7.03;;;1.40;99.90;;;;;;4158816;28;20275;-56
2023/11/20 06:35:07;;;;;;;13.03;7.63;;;1.40;99.90;;;;;;4159300;28;20332;-59
2023/11/20 06:37:08;;;;;;;14.93;7.03;;;1.40;99.90;;;;;;4158432;28;20732;-60
2023/11/20 06:39:10;;;;;;;11.43;7.93;;;1.50;99.90;;;;;;4158913;28;20267;-57
2023/11/20 06:41:11;;;;;;;11.17;6.90;;;1.50;99.90;;;;;;4158615;28;20267;-59
2023/11/20 06:43:13;;;;;;;13.23;7.47;;;1.50;99.90;;;;;;4158428;28;20290;-59
2023/11/20 06:45:14;;;;;;;11.17;7.33;;;1.50;99.90;;;;;;4158868;28;20312;-59
2023/11/20 06:47:15;;;;;;;9.70;6.50;;;1.50;99.90;;;;;;4158583;28;20341;-60
2023/11/20 06:49:16;;;;;;;11.00;6.43;;;1.50;99.90;;;;;;4158124;28;20274;-60
2023/11/20 06:51:17;;;;;;;10.67;6.97;;;1.50;99.90;;;;;;4165055;28;20328;-57
2023/11/20 06:53:19;;;;;;;12.43;7.37;;;1.50;99.90;;;;;;4174290;28;20755;-61
2023/11/20 06:55:21;;;;;;;12.80;7.83;;;1.60;99.90;;;;;;4174640;28;20791;-60
2023/11/20 06:57:22;;;;;;;17.60;7.63;;;1.60;99.90;;;;;;4175652;28;20320;-60
2023/11/20 06:59:23;;;;;;;10.50;6.77;;;1.60;99.90;;;;;;4177887;28;20274;-60
2023/11/20 07:01:24;;;;;;;10.10;6.03;;;1.60;99.90;;;;;;4177992;28;20294;-59
2023/11/20 07:03:26;;;;;;;8.60;6.53;;;1.60;99.90;;;;;;4177163;28;20731;-58
2023/11/20 07:05:27;;;;;;;14.70;8.77;;;1.60;99.90;;;;;;4172124;28;20279;-61
2023/11/20 07:07:28;;;;;;;12.03;7.43;;;1.70;99.90;;;;;;4161593;28;20344;-61
2023/11/20 07:09:30;;;;;;;12.50;7.00;;;1.70;99.90;;;;;;4162201;28;20266;-59
2023/11/20 07:11:31;;;;;;;10.73;6.50;;;1.70;99.90;;;;;;4161627;28;20278;-57
2023/11/20 07:13:32;;;;;;;10.60;6.73;;;1.80;99.90;;;;;;4161934;28;20267;-59
2023/11/20 07:15:34;;;;;;;15.20;8.20;;;1.80;99.90;;;;;;4161777;28;20325;-62
2023/11/20 07:17:36;;;;;;;13.70;7.80;;;1.80;99.90;;;;;;4161414;28;20334;-64
2023/11/20 07:19:37;;;;;;;13.97;7.17;;;1.80;99.90;;;;;;4160973;28;20297;-61
2023/11/20 07:21:40;;;;;;;14.37;7.70;;;1.80;99.90;;;;;;4160805;28;20267;-61
2023/11/20 07:23:41;;;;;;;9.53;5.87;;;1.80;99.90;;;;;;4161192;28;20329;-61
2023/11/20 07:25:42;;;;;;;11.40;6.90;;;1.80;99.90;;;;;;4161116;28;20345;-60
2023/11/20 07:27:43;;;;;;;23.63;9.67;;;1.80;99.90;;;;;;4161456;28;20825;-61
2023/11/20 07:29:44;;;;;;;20.47;9.83;;;1.80;99.90;;;;;;4160821;28;20263;-60
2023/11/20 07:31:46;;;;;;;19.03;9.83;;;1.80;99.90;;;;;;4160830;28;20267;-60
2023/11/20 07:33:47;;;;;;;15.63;9.00;;;1.90;99.90;;;;;;4161477;28;20267;-61
2023/11/20 07:35:48;;;;;;;18.60;9.37;;;1.90;99.90;;;;;;4161084;28;20749;-60
2023/11/20 07:37:50;;;;;;;16.80;10.00;;;1.80;99.90;;;;;;4161481;28;20263;-60
2023/11/20 07:39:52;;;;;;;19.33;10.33;;;1.80;99.90;;;;;;4160507;28;20336;-61
2023/11/20 07:41:53;;;;;;;12.90;7.30;;;1.80;99.90;;;;;;4160421;28;20318;-60
2023/11/20 07:43:54;;;;;;;10.47;7.00;;;1.90;99.90;;;;;;4160796;28;20329;-59
2023/11/20 07:45:55;;;;;;;16.13;7.13;;;1.80;99.90;;;;;;4161406;28;20271;-60
2023/11/20 07:47:57;;;;;;;9.60;6.47;;;1.80;99.90;;;;;;4161296;28;20395;-60
2023/11/20 07:49:58;;;;;;;19.43;9.83;;;1.80;99.90;;;;;;4161520;28;20750;-61
2023/11/20 07:51:59;;;;;;;14.93;8.37;;;1.90;99.90;;;;;;4161212;28;20267;-59
2023/11/20 07:54:01;;;;;;;15.60;8.40;;;1.90;99.90;;;;;;4161162;28;20286;-61
2023/11/20 07:56:02;;;;;;;14.93;8.23;;;1.90;99.90;;;;;;4161196;28;20329;-61
2023/11/20 07:58:04;;;;;;;12.03;7.83;;;1.90;99.90;;;;;;4161124;28;20678;-61
2023/11/20 08:00:05;;;;;;;13.63;7.53;;;2.00;99.90;;;;;;4160732;28;20275;-60
2023/11/20 08:02:08;;;;;;;14.03;7.07;;;1.90;99.90;;;;;;4160882;28;20271;-61
2023/11/20 08:04:11;;;;;;;14.50;7.03;;;2.00;99.90;;;;;;4160468;28;20821;-61
2023/11/20 08:06:13;;;;;;;12.97;7.23;;;2.00;99.90;;;;;;4161052;28;20274;-60
2023/11/20 08:08:14;;;;;;;9.30;6.10;;;2.00;99.90;;;;;;4160988;28;20409;-61
2023/11/20 08:10:18;;;;;;;10.50;6.50;;;2.00;99.90;;;;;;4143269;28;20260;-59
2023/11/20 08:12:19;;;;;;;10.20;6.70;;;2.00;99.90;;;;;;4160411;28;20321;-61
2023/11/20 08:14:20;;;;;;;11.50;7.23;;;2.00;99.90;;;;;;4160742;28;20754;-63
2023/11/20 08:16:22;;;;;;;12.20;6.93;;;2.00;99.90;;;;;;4160355;28;20731;-60
2023/11/20 08:18:23;;;;;;;9.73;6.53;;;2.00;99.90;;;;;;4160437;28;20298;-63
2023/11/20 08:20:24;;;;;;;10.07;6.63;;;2.00;99.90;;;;;;4160390;28;20823;-61
2023/11/20 08:22:25;;;;;;;10.33;6.20;;;2.00;99.90;;;;;;4160340;28;20263;-61
2023/11/20 08:24:26;;;;;;;9.43;5.67;;;2.00;99.90;;;;;;4160364;28;20320;-61
2023/11/20 08:26:28;;;;;;;8.90;6.27;;;2.00;99.90;;;;;;4160865;28;20802;-61
2023/11/20 08:28:29;;;;;;;9.30;5.63;;;2.10;99.90;;;;;;4142607;28;20292;-61
2023/11/20 08:30:33;;;;;;;12.93;6.87;;;2.10;99.90;;;;;;4160020;28;20274;-61
2023/11/20 08:32:34;;;;;;;9.27;5.93;;;2.10;99.90;;;;;;4159908;28;20682;-62
2023/11/20 08:34:35;;;;;;;10.60;6.23;;;2.10;99.90;;;;;;4160520;28;20723;-62
2023/11/20 08:36:37;;;;;;;12.43;7.17;;;2.20;99.90;;;;;;4160302;28;20337;-60
2023/11/20 08:38:38;;;;;;;9.43;5.63;;;2.20;99.90;;;;;;4160391;28;20278;-61
2023/11/20 08:40:40;;;;;;;9.47;6.30;;;2.20;99.90;;;;;;4160171;28;20674;-61
2023/11/20 08:42:41;;;;;;;10.87;6.57;;;2.20;99.90;;;;;;4160283;28;20266;-61
2023/11/20 08:44:42;;;;;;;7.10;5.13;;;2.20;99.90;;;;;;4160013;28;20275;-60
2023/11/20 08:46:43;;;;;;;8.93;5.27;;;2.30;99.90;;;;;;4160117;28;20569;-59
2023/11/20 08:48:44;;;;;;;10.17;5.63;;;2.30;99.90;;;;;;4160337;28;20313;-58
2023/11/20 08:50:46;;;;;;;9.60;5.90;;;2.30;99.90;;;;;;4159867;28;20282;-60
2023/11/20 08:52:47;;;;;;;11.20;5.80;;;2.30;99.90;;;;;;4160375;28;20305;-60
2023/11/20 08:54:48;;;;;;;9.60;6.07;;;2.30;99.90;;;;;;4159734;28;20266;-61
2023/11/20 08:56:51;;;;;;;7.50;4.93;;;2.30;99.90;;;;;;4159777;28;20309;-60
2023/11/20 08:58:55;;;;;;;12.03;6.37;;;2.30;99.90;;;;;;4159841;28;20275;-60
2023/11/20 09:00:56;;;;;;;11.10;5.93;;;2.40;99.90;;;;;;4159608;28;20341;-58
2023/11/20 09:02:58;;;;;;;13.27;7.43;;;2.30;99.90;;;;;;4159298;28;20356;-60
2023/11/20 09:04:59;;;;;;;12.23;7.23;;;2.40;99.90;;;;;;4160171;28;20743;-61
2023/11/20 09:07:01;;;;;;;12.37;7.73;;;2.40;99.90;;;;;;4159395;28;20333;-61
2023/11/20 09:09:04;;;;;;;12.13;8.00;;;2.50;99.90;;;;;;4159942;28;20325;-61
2023/11/20 09:11:07;;;;;;;12.00;8.23;;;2.50;99.90;;;;;;4159819;28;20259;-60
2023/11/20 09:13:09;;;;;;;18.13;11.07;;;2.50;99.90;;;;;;4159888;28;20311;-62
2023/11/20 09:15:14;;;;;;;16.60;9.20;;;2.50;99.90;;;;;;4159803;28;20336;-61
2023/11/20 09:17:15;;;;;;;16.57;10.30;;;2.60;99.90;;;;;;4159651;28;20763;-60
2023/11/20 09:19:16;;;;;;;17.53;9.10;;;2.70;99.90;;;;;;4158998;28;20691;-59
2023/11/20 09:21:18;;;;;;;17.73;9.97;;;2.70;99.90;;;;;;4158048;28;20325;-60
2023/11/20 09:23:19;;;;;;;20.27;11.17;;;2.70;99.90;;;;;;4158671;28;20374;-60
2023/11/20 09:25:21;;;;;;;19.00;11.00;;;2.80;99.90;;;;;;4158663;28;20309;-60
2023/11/20 09:27:22;;;;;;;17.57;10.43;;;2.80;99.90;;;;;;4158305;28;20306;-58
2023/11/20 09:29:23;;;;;;;23.43;12.67;;;2.80;99.90;;;;;;4159153;28;20274;-62
2023/11/20 09:31:24;;;;;;;17.07;10.50;;;2.80;99.90;;;;;;4140977;28;20283;-61
2023/11/20 09:33:26;;;;;;;20.23;11.00;;;2.80;99.90;;;;;;4158640;28;20328;-60
2023/11/20 09:35:27;;;;;;;20.57;12.30;;;2.80;99.90;;;;;;4159018;28;20332;-60
2023/11/20 09:37:28;;;;;;;18.93;10.13;;;2.90;99.90;;;;;;4158651;28;20270;-61
2023/11/20 09:39:29;;;;;;;15.47;10.20;;;3.00;99.90;;;;;;4158730;28;20274;-61
2023/11/20 09:41:35;;;;;;;17.93;9.77;;;3.00;99.90;;;;;;4157713;28;20267;-61
2023/11/20 09:43:38;;;;;;;16.10;9.50;;;3.10;99.90;;;;;;4158191;28;20275;-61
2023/11/20 09:45:40;;;;;;;19.37;10.93;;;3.00;99.90;;;;;;4140096;28;20279;-61
2023/11/20 09:47:45;;;;;;;17.77;10.23;;;3.10;99.90;;;;;;4158349;28;20360;-61
2023/11/20 09:49:48;;;;;;;17.03;10.30;;;3.10;99.90;;;;;;4157867;28;20282;-57
2023/11/20 09:51:52;;;;;;;15.97;9.87;;;3.30;99.90;;;;;;4158699;28;20400;-60
2023/11/20 09:53:55;;;;;;;20.93;10.37;;;3.30;99.90;;;;;;4158689;28;20248;-59
2023/11/20 09:55:56;;;;;;;18.23;9.87;;;3.40;99.90;;;;;;4157950;28;20305;-62
2023/11/20 09:57:58;;;;;;;16.97;9.63;;;3.40;99.90;;;;;;4158668;28;20304;-60
2023/11/20 10:00:00;;;;;;;17.67;9.50;;;3.40;99.90;;;;;;4158287;28;20345;-62
2023/11/20 10:02:02;;;;;;;14.30;9.20;;;3.30;99.90;;;;;;4158227;28;20828;-60
2023/11/20 10:04:04;;;;;;;20.57;10.37;;;3.40;99.90;;;;;;4157917;28;20263;-62
2023/11/20 10:06:13;;;;;;;15.07;9.47;;;3.40;99.90;;;;;;4158366;28;20262;-61
2023/11/20 10:08:16;;;;;;;16.23;10.03;;;3.40;99.90;;;;;;4157957;28;20295;-60
2023/11/20 10:12:47;;;;;;;15.47;9.97;;;3.40;99.90;;;;;;4545567;22;1215185;-61
2023/11/20 10:14:48;;;;;;;15.47;9.77;;;3.40;99.90;;;;;;4192382;28;20111;-59
2023/11/20 10:16:55;;;;;;;11.90;8.47;;;3.40;99.90;;;;;;4192795;28;20319;-62
2023/11/20 10:18:56;;;;;;;17.60;8.87;;;3.40;99.90;;;;;;4191351;28;20291;-62
2023/11/20 10:20:59;;;;;;;14.83;9.20;;;3.40;99.90;;;;;;4192786;28;20378;-62
2023/11/20 10:23:04;;;;;;;15.47;9.40;;;3.50;99.90;;;;;;4192762;28;20250;-61
2023/11/20 10:25:06;;;;;;;13.33;8.90;;;3.50;99.90;;;;;;4193148;28;20299;-60
2023/11/20 10:27:07;;;;;;;17.60;8.50;;;3.60;99.90;;;;;;4193248;28;20257;-61
2023/11/20 10:29:12;;;;;;;11.67;8.20;;;3.60;99.90;;;;;;4192840;28;20343;-60
2023/11/20 10:31:13;;;;;;;11.97;7.80;;;3.60;99.90;;;;;;4193322;28;20257;-61
2023/11/20 10:33:18;;;;;;;10.40;6.93;;;3.60;99.90;;;;;;4193887;28;20257;-61
2023/11/20 10:35:20;;;;;;;11.70;7.57;;;3.60;99.90;;;;;;4196079;28;20265;-60